createdAt,value
2019-04-10T00:00:39.162Z,14.10
2019-04-10T00:03:08.277Z,16.20
2019-04-10T00:05:36.586Z,12.07
2019-04-10T00:08:04.766Z,13.27
2019-04-10T00:10:33.994Z,12.13
2019-04-10T00:13:02.462Z,12.80
2019-04-10T00:15:30.683Z,10.38
2019-04-10T00:17:59.765Z,10.97
2019-04-10T00:20:28.805Z,9.93
2019-04-10T00:22:56.940Z,12.50
2019-04-10T00:25:24.854Z,12.63
2019-04-10T00:27:53.005Z,10.87
2019-04-10T00:30:21.030Z,11.10
2019-04-10T00:32:49.221Z,11.00
2019-04-10T00:35:17.210Z,11.70
2019-04-10T00:37:45.705Z,11.33
2019-04-10T00:40:13.738Z,9.73
2019-04-10T00:42:41.580Z,11.35
2019-04-10T00:45:09.722Z,10.18
2019-04-10T00:47:38.065Z,9.03
2019-04-10T00:50:06.458Z,11.73
2019-04-10T00:52:36.659Z,8.75
2019-04-10T00:55:05.718Z,9.40
2019-04-10T00:57:33.857Z,9.33
2019-04-10T01:00:01.926Z,11.53
2019-04-10T01:02:29.886Z,9.10
2019-04-10T01:04:58.458Z,9.60
2019-04-10T01:07:35.692Z,10.97
2019-04-10T01:09:56.393Z,8.40
2019-04-10T01:12:24.461Z,11.22
2019-04-10T01:14:52.431Z,8.48
2019-04-10T01:17:20.561Z,11.70
2019-04-10T01:19:50.277Z,8.75
2019-04-10T01:22:19.033Z,9.30
2019-04-10T01:24:48.453Z,9.13
2019-04-10T01:27:16.500Z,6.95
2019-04-10T01:29:44.568Z,7.90
2019-04-10T01:32:12.604Z,8.53
2019-04-10T01:34:41.281Z,8.88
2019-04-10T01:37:10.245Z,7.75
2019-04-10T01:39:38.253Z,9.30
2019-04-10T01:42:08.182Z,6.67
2019-04-10T01:44:36.463Z,7.25
2019-04-10T01:47:04.760Z,7.72
2019-04-10T01:49:33.583Z,9.43
2019-04-10T01:52:01.823Z,7.30
2019-04-10T01:54:29.883Z,5.80
2019-04-10T01:56:57.889Z,7.53
2019-04-10T01:59:27.267Z,4.50
2019-04-10T02:02:00.990Z,6.60
2019-04-10T02:04:29.176Z,9.20
2019-04-10T02:06:57.968Z,6.20
2019-04-10T02:09:26.040Z,6.75
2019-04-10T02:11:54.467Z,5.65
2019-04-10T02:14:23.113Z,4.08
2019-04-10T02:16:51.554Z,5.40
2019-04-10T02:19:19.681Z,5.17
2019-04-10T02:21:47.811Z,7.40
2019-04-10T02:24:16.706Z,4.90
2019-04-10T02:26:45.631Z,4.65
2019-04-10T02:29:13.856Z,4.22
2019-04-10T02:31:41.792Z,4.37
2019-04-10T02:34:09.801Z,5.62
2019-04-10T02:36:38.503Z,5.25
2019-04-10T02:39:17.807Z,4.75
2019-04-10T02:41:38.633Z,6.53
2019-04-10T02:44:07.910Z,5.05
2019-04-10T02:46:36.886Z,5.78
2019-04-10T02:49:06.215Z,4.42
2019-04-10T02:51:35.164Z,4.65
2019-04-10T02:54:05.242Z,4.58
2019-04-10T02:56:33.597Z,5.40
2019-04-10T02:59:02.843Z,5.58
2019-04-10T03:01:31.585Z,5.83
2019-04-10T03:04:01.313Z,5.25
2019-04-10T03:06:31.013Z,4.50
2019-04-10T03:09:14.711Z,5.95
2019-04-10T03:11:31.092Z,6.17
2019-04-10T03:13:59.945Z,4.78
2019-04-10T03:16:29.171Z,4.67
2019-04-10T03:18:57.704Z,10.68
2019-04-10T03:21:25.612Z,6.12
2019-04-10T03:23:53.818Z,5.75
2019-04-10T03:26:21.940Z,4.83
2019-04-10T03:28:49.885Z,3.90
2019-04-10T03:31:19.874Z,5.62
2019-04-10T03:34:13.540Z,5.80
2019-04-10T03:36:41.091Z,6.60
2019-04-10T03:39:10.595Z,5.12
2019-04-10T03:41:40.126Z,4.58
2019-04-10T03:44:08.239Z,7.95
2019-04-10T03:46:38.716Z,4.42
2019-04-10T03:49:06.339Z,4.95
2019-04-10T03:51:34.252Z,3.77
2019-04-10T03:54:02.641Z,4.72
2019-04-10T03:56:31.813Z,3.58
2019-04-10T03:59:06.755Z,7.28
2019-04-10T04:01:35.380Z,9.35
2019-04-10T04:04:04.968Z,4.60
2019-04-10T04:06:33.425Z,4.80
2019-04-10T04:09:08.919Z,3.98
2019-04-10T04:11:31.445Z,5.95
2019-04-10T04:13:59.840Z,7.33
2019-04-10T04:16:27.903Z,4.42
2019-04-10T04:18:55.912Z,6.72
2019-04-10T04:21:23.833Z,4.78
2019-04-10T04:23:51.863Z,3.42
2019-04-10T04:26:21.163Z,4.92
2019-04-10T04:28:49.461Z,4.17
2019-04-10T04:31:18.106Z,5.62
2019-04-10T04:33:46.913Z,4.83
2019-04-10T04:36:15.944Z,6.22
2019-04-10T04:38:45.051Z,6.62
2019-04-10T04:41:13.362Z,6.03
2019-04-10T04:43:43.406Z,7.67
2019-04-10T04:46:12.023Z,6.10
2019-04-10T04:48:41.000Z,8.55
2019-04-10T04:51:09.339Z,6.33
2019-04-10T04:53:37.327Z,6.58
2019-04-10T04:56:05.337Z,7.28
2019-04-10T04:58:33.979Z,5.65
2019-04-10T05:01:04.334Z,6.95
2019-04-10T05:03:33.405Z,12.37
2019-04-10T05:06:01.861Z,9.30
2019-04-10T05:08:30.227Z,7.00
2019-04-10T05:10:58.470Z,6.22
2019-04-10T05:13:26.445Z,6.90
2019-04-10T05:15:55.395Z,6.22
2019-04-10T05:18:23.592Z,4.85
2019-04-10T05:20:52.411Z,8.80
2019-04-10T05:23:22.272Z,8.18
2019-04-10T05:25:50.402Z,6.10
2019-04-10T05:28:20.301Z,9.20
2019-04-10T05:30:48.362Z,13.65
2019-04-10T05:33:16.467Z,6.97
2019-04-10T05:35:45.259Z,8.80
2019-04-10T05:38:13.835Z,12.65
2019-04-10T05:40:42.252Z,7.12
2019-04-10T05:43:11.411Z,11.10
2019-04-10T05:45:40.496Z,7.95
2019-04-10T05:48:08.818Z,11.03
2019-04-10T05:50:37.822Z,10.95
2019-04-10T05:53:05.973Z,9.15
2019-04-10T05:55:33.898Z,9.08
2019-04-10T05:58:01.868Z,8.35
2019-04-10T06:00:29.933Z,12.28
2019-04-10T06:02:58.466Z,6.05
2019-04-10T06:05:35.732Z,8.18
2019-04-10T06:08:03.784Z,7.22
2019-04-10T06:10:32.240Z,8.63
2019-04-10T06:13:00.553Z,8.18
2019-04-10T06:15:28.801Z,5.92
2019-04-10T06:17:56.721Z,6.67
2019-04-10T06:20:25.072Z,13.40
2019-04-10T06:22:54.884Z,9.65
2019-04-10T06:25:24.781Z,16.25
2019-04-10T06:27:53.068Z,10.15
2019-04-10T06:30:21.060Z,12.60
2019-04-10T06:32:49.103Z,9.70
2019-04-10T06:35:17.313Z,10.35
2019-04-10T06:37:46.314Z,9.95
2019-04-10T06:40:19.663Z,8.80
2019-04-10T06:42:50.236Z,10.23
2019-04-10T06:45:15.544Z,8.08
2019-04-10T06:47:44.521Z,8.40
2019-04-10T06:50:13.048Z,7.33
2019-04-10T06:52:41.050Z,8.10
2019-04-10T06:55:09.313Z,8.73
2019-04-10T06:57:47.863Z,11.55
2019-04-10T07:00:15.274Z,8.03
2019-04-10T07:02:44.275Z,8.83
2019-04-10T07:05:13.871Z,7.92
2019-04-10T07:07:51.366Z,8.35
2019-04-10T07:10:23.774Z,13.18
2019-04-10T07:12:43.872Z,6.60
2019-04-10T07:15:12.516Z,8.53
2019-04-10T07:17:41.893Z,8.10
2019-04-10T07:20:10.850Z,12.85
2019-04-10T07:22:44.579Z,7.58
2019-04-10T07:25:11.146Z,12.33
2019-04-10T07:27:40.156Z,16.23
2019-04-10T07:30:09.825Z,10.28
2019-04-10T07:32:42.072Z,8.75
2019-04-10T07:35:08.981Z,8.70
2019-04-10T07:37:37.217Z,9.25
2019-04-10T07:40:06.184Z,13.38
2019-04-10T07:42:38.423Z,8.95
2019-04-10T07:45:04.747Z,9.95
2019-04-10T07:47:32.612Z,7.05
2019-04-10T07:50:02.099Z,10.53
2019-04-10T07:52:30.753Z,8.93
2019-04-10T07:54:58.823Z,12.90
2019-04-10T07:57:26.805Z,8.30
2019-04-10T07:59:54.797Z,13.40
2019-04-10T08:02:23.334Z,9.88
2019-04-10T08:04:51.677Z,8.80
2019-04-10T08:07:29.436Z,13.15
2019-04-10T08:09:49.834Z,9.25
2019-04-10T08:12:18.977Z,11.12
2019-04-10T08:14:47.116Z,8.70
2019-04-10T08:17:16.285Z,8.45
2019-04-10T08:19:45.266Z,16.40
2019-04-10T08:22:14.252Z,9.23
2019-04-10T08:24:42.668Z,10.23
2019-04-10T08:27:11.711Z,9.25
2019-04-10T08:29:40.876Z,11.97
2019-04-10T08:32:09.866Z,8.75
2019-04-10T08:34:38.280Z,9.48
2019-04-10T08:37:06.559Z,10.43
2019-04-10T08:39:41.157Z,7.87
2019-04-10T08:42:06.403Z,9.93
2019-04-10T08:44:34.697Z,9.70
2019-04-10T08:47:02.689Z,9.13
2019-04-10T08:49:30.915Z,10.00
2019-04-10T08:51:59.869Z,12.43
2019-04-10T08:54:28.137Z,12.13
2019-04-10T08:56:56.887Z,10.38
2019-04-10T08:59:25.053Z,9.80
2019-04-10T09:01:54.034Z,8.70
2019-04-10T09:04:22.672Z,9.00
2019-04-10T09:06:51.534Z,8.85
2019-04-10T09:09:19.486Z,11.90
2019-04-10T09:11:47.420Z,12.30
2019-04-10T09:14:15.255Z,8.58
2019-04-10T09:16:43.196Z,9.40
2019-04-10T09:19:11.971Z,9.83
2019-04-10T09:21:41.710Z,11.08
2019-04-10T09:24:10.238Z,10.70
2019-04-10T09:26:38.887Z,12.07
2019-04-10T09:29:06.916Z,10.75
2019-04-10T09:31:35.354Z,15.08
2019-04-10T09:34:03.814Z,11.95
2019-04-10T09:36:31.859Z,13.03
2019-04-10T09:38:59.797Z,10.50
2019-04-10T09:41:28.093Z,12.50
2019-04-10T09:43:56.292Z,8.53
2019-04-10T09:46:24.722Z,8.95
2019-04-10T09:48:52.645Z,9.27
2019-04-10T09:51:21.491Z,9.03
2019-04-10T09:53:49.572Z,9.88
2019-04-10T09:56:17.563Z,13.23
2019-04-10T09:58:45.508Z,12.70
2019-04-10T10:01:15.850Z,10.43
2019-04-10T10:03:44.453Z,11.53
2019-04-10T10:06:23.480Z,17.98
2019-04-10T10:08:43.478Z,10.97
2019-04-10T10:11:11.691Z,9.53
2019-04-10T10:13:39.626Z,13.70
2019-04-10T10:16:08.516Z,8.68
2019-04-10T10:18:37.316Z,9.13
2019-04-10T10:21:05.641Z,9.43
2019-04-10T10:23:33.966Z,11.57
2019-04-10T10:26:01.910Z,9.03
2019-04-10T10:28:30.989Z,14.28
2019-04-10T10:30:59.918Z,15.57
2019-04-10T10:33:28.086Z,10.53
2019-04-10T10:35:56.142Z,9.37
2019-04-10T10:38:25.182Z,7.83
2019-04-10T10:40:53.335Z,9.73
2019-04-10T10:43:22.575Z,11.80
2019-04-10T10:45:51.273Z,14.43
2019-04-10T10:48:19.838Z,9.37
2019-04-10T10:50:47.974Z,11.37
2019-04-10T10:53:16.411Z,11.23
2019-04-10T10:55:45.505Z,13.13
2019-04-10T10:58:13.683Z,10.23
2019-04-10T11:00:43.071Z,16.37
2019-04-10T11:03:11.907Z,17.50
2019-04-10T11:05:40.139Z,21.33
2019-04-10T11:08:08.206Z,13.90
2019-04-10T11:10:36.411Z,10.78
2019-04-10T11:13:04.775Z,13.53
2019-04-10T11:15:37.759Z,16.63
2019-04-10T11:18:06.482Z,11.05
2019-04-10T11:20:36.412Z,17.73
2019-04-10T11:23:06.151Z,15.57
2019-04-10T11:25:35.830Z,10.40
2019-04-10T11:28:05.834Z,17.27
2019-04-10T11:30:34.687Z,12.37
2019-04-10T11:33:03.569Z,10.50
2019-04-10T11:35:31.996Z,8.15
2019-04-10T11:38:02.536Z,14.13
2019-04-10T11:40:31.649Z,10.90
2019-04-10T11:43:02.818Z,11.23
2019-04-10T11:45:37.976Z,17.70
2019-04-10T11:48:01.708Z,17.30
2019-04-10T11:50:30.050Z,18.30
2019-04-10T11:53:00.381Z,10.83
2019-04-10T11:55:29.741Z,15.20
2019-04-10T11:57:59.915Z,12.33
2019-04-10T12:00:47.298Z,18.80
2019-04-10T12:03:10.244Z,19.17
2019-04-10T12:05:41.141Z,23.27
2019-04-10T12:08:33.616Z,16.57
2019-04-10T12:13:10.206Z,13.93
2019-04-10T12:15:38.653Z,13.40
2019-04-10T12:18:06.889Z,12.37
2019-04-10T12:20:35.447Z,13.67
2019-04-10T12:23:03.648Z,21.80
2019-04-10T12:25:32.602Z,13.03
2019-04-10T12:28:01.310Z,15.30
2019-04-10T12:30:29.540Z,10.47
2019-04-10T12:32:57.572Z,10.53
2019-04-10T12:35:25.834Z,13.57
2019-04-10T12:38:02.248Z,11.03
2019-04-10T12:40:23.827Z,15.57
2019-04-10T12:42:52.406Z,12.43
2019-04-10T12:45:20.669Z,10.57
2019-04-10T12:47:48.714Z,13.97
2019-04-10T12:50:16.777Z,18.47
2019-04-10T12:52:45.065Z,13.87
2019-04-10T12:55:14.474Z,18.90
2019-04-10T12:57:43.461Z,13.07
2019-04-10T13:00:18.125Z,13.17
2019-04-10T13:02:48.345Z,10.57
2019-04-10T13:05:18.876Z,17.53
2019-04-10T13:07:47.728Z,8.47
2019-04-10T13:10:15.910Z,12.53
2019-04-10T13:12:45.170Z,15.03
2019-04-10T13:15:13.451Z,12.77
2019-04-10T13:17:42.768Z,19.07
2019-04-10T13:20:22.127Z,15.00
2019-04-10T13:22:50.683Z,15.23
2019-04-10T13:25:18.957Z,10.10
2019-04-10T13:27:47.333Z,10.57
2019-04-10T13:30:16.594Z,11.87
2019-04-10T13:32:44.720Z,9.43
2019-04-10T13:35:13.672Z,9.67
2019-04-10T13:37:43.637Z,13.10
2019-04-10T13:40:13.174Z,13.07
2019-04-10T13:42:41.209Z,15.10
2019-04-10T13:45:09.432Z,16.83
2019-04-10T13:47:38.583Z,25.20
2019-04-10T13:50:08.486Z,37.50
2019-04-10T13:52:38.715Z,23.93
2019-04-10T13:55:10.078Z,13.93
2019-04-10T13:57:39.224Z,16.43
2019-04-10T14:00:09.624Z,12.83
2019-04-10T14:02:37.768Z,8.43
2019-04-10T14:05:08.083Z,15.70
2019-04-10T14:07:36.277Z,13.50
2019-04-10T14:10:07.102Z,15.53
2019-04-10T14:12:35.405Z,10.63
2019-04-10T14:15:04.895Z,10.93
2019-04-10T14:17:33.372Z,13.43
2019-04-10T14:20:02.857Z,10.80
2019-04-10T14:22:31.537Z,10.27
2019-04-10T14:24:59.608Z,11.93
2019-04-10T14:27:28.499Z,10.30
2019-04-10T14:29:58.499Z,14.20
2019-04-10T14:32:31.493Z,10.27
2019-04-10T14:35:01.032Z,13.97
2019-04-10T14:37:29.577Z,13.77
2019-04-10T14:39:57.932Z,14.77
2019-04-10T14:42:26.620Z,10.03
2019-04-10T14:44:55.105Z,11.33
2019-04-10T14:47:23.986Z,28.67
2019-04-10T14:49:54.043Z,19.20
2019-04-10T14:52:23.287Z,15.10
2019-04-10T14:54:52.196Z,14.80
2019-04-10T14:57:20.972Z,14.67
2019-04-10T14:59:49.365Z,17.30
2019-04-10T15:02:18.900Z,14.87
2019-04-10T15:04:46.976Z,15.60
2019-04-10T15:07:15.140Z,15.27
2019-04-10T15:09:43.244Z,29.63
2019-04-10T15:12:12.184Z,13.00
2019-04-10T15:14:40.899Z,14.10
2019-04-10T15:17:09.509Z,11.53
2019-04-10T15:19:37.859Z,10.27
2019-04-10T15:22:05.900Z,10.77
2019-04-10T15:24:34.004Z,11.33
2019-04-10T15:27:02.724Z,13.00
2019-04-10T15:29:32.349Z,11.77
2019-04-10T15:32:00.478Z,15.03
2019-04-10T15:34:28.517Z,14.40
2019-04-10T15:36:56.530Z,17.33
2019-04-10T15:39:32.296Z,39.10
2019-04-10T15:41:55.307Z,21.60
2019-04-10T15:44:24.283Z,20.53
2019-04-10T15:46:53.306Z,18.13
2019-04-10T15:49:21.459Z,19.07
2019-04-10T15:51:49.793Z,21.23
2019-04-10T15:54:18.130Z,19.97
2019-04-10T15:56:46.570Z,17.63
2019-04-10T15:59:28.187Z,17.83
2019-04-10T16:01:57.320Z,40.00
2019-04-10T16:04:25.565Z,16.93
2019-04-10T16:06:53.747Z,15.73
2019-04-10T16:09:21.902Z,22.07
2019-04-10T16:12:02.682Z,35.33
2019-04-10T16:14:32.068Z,15.47
2019-04-10T16:17:22.235Z,19.30
2019-04-10T16:20:19.653Z,27.70
2019-04-10T16:23:08.086Z,22.40
2019-04-10T16:25:38.743Z,16.17
2019-04-10T16:28:11.087Z,20.07
2019-04-10T16:30:43.264Z,15.03
2019-04-10T16:33:11.288Z,17.13
2019-04-10T16:35:40.075Z,16.23
2019-04-10T16:38:08.575Z,13.00
2019-04-10T16:40:38.166Z,14.07
2019-04-10T16:43:07.809Z,13.83
2019-04-10T16:45:36.214Z,17.60
2019-04-10T16:48:04.616Z,19.40
2019-04-10T16:50:32.718Z,16.27
2019-04-10T16:53:01.309Z,28.67
2019-04-10T16:55:29.647Z,24.43
2019-04-10T16:57:57.658Z,17.77
2019-04-10T17:00:26.933Z,18.63
2019-04-10T17:02:55.013Z,19.00
2019-04-10T17:05:23.030Z,39.00
2019-04-10T17:07:51.657Z,31.90
2019-04-10T17:10:24.361Z,28.00
2019-04-10T17:12:50.358Z,31.03
2019-04-10T17:15:18.318Z,32.37
2019-04-10T17:17:46.515Z,28.90
2019-04-10T17:20:16.008Z,29.27
2019-04-10T17:22:47.247Z,29.77
2019-04-10T17:25:14.207Z,20.83
2019-04-10T17:27:42.334Z,19.80
2019-04-10T17:30:11.726Z,24.80
2019-04-10T17:32:52.253Z,27.43
2019-04-10T17:35:21.351Z,23.23
2019-04-10T17:37:49.914Z,30.07
2019-04-10T17:40:31.090Z,24.87
2019-04-10T17:42:49.478Z,27.30
2019-04-10T17:45:18.512Z,27.50
2019-04-10T17:47:47.243Z,22.47
2019-04-10T17:50:16.595Z,26.63
2019-04-10T17:52:45.174Z,18.43
2019-04-10T17:55:13.660Z,20.17
2019-04-10T17:57:44.612Z,18.50
2019-04-10T18:00:53.840Z,19.23
2019-04-10T18:03:25.372Z,18.40
2019-04-10T18:05:55.143Z,18.70
2019-04-10T18:08:26.393Z,17.80
2019-04-10T18:10:55.423Z,18.90
2019-04-10T18:13:24.492Z,14.17
2019-04-10T18:15:53.800Z,17.53
2019-04-10T18:18:22.353Z,21.63
2019-04-10T18:20:51.158Z,24.17
2019-04-10T18:23:19.666Z,18.87
2019-04-10T18:25:47.728Z,18.93
2019-04-10T18:28:15.722Z,19.13
2019-04-10T18:30:44.012Z,18.20
2019-04-10T18:33:12.532Z,21.63
2019-04-10T18:35:40.816Z,18.00
2019-04-10T18:38:09.093Z,19.33
2019-04-10T18:40:37.224Z,19.53
2019-04-10T18:43:05.354Z,20.87
2019-04-10T18:45:33.717Z,19.07
2019-04-10T18:48:02.782Z,21.57
2019-04-10T18:50:34.116Z,18.87
2019-04-10T18:53:02.154Z,59.10
2019-04-10T18:55:30.167Z,26.27
2019-04-10T18:57:59.131Z,21.50
2019-04-10T19:00:46.205Z,19.63
2019-04-10T19:03:50.140Z,24.30
2019-04-10T19:06:18.994Z,22.87
2019-04-10T19:09:00.067Z,20.23
2019-04-10T19:11:22.779Z,22.33
2019-04-10T19:13:47.275Z,21.03
2019-04-10T19:16:17.377Z,23.87
2019-04-10T19:18:46.137Z,21.37
2019-04-10T19:21:15.540Z,21.33
2019-04-10T19:23:43.763Z,24.07
2019-04-10T19:26:13.947Z,23.40
2019-04-10T19:28:45.092Z,20.47
2019-04-10T19:31:19.453Z,21.77
2019-04-10T19:33:44.630Z,18.87
2019-04-10T19:36:12.756Z,17.97
2019-04-10T19:38:41.206Z,21.43
2019-04-10T19:41:21.039Z,17.47
2019-04-10T19:43:40.095Z,26.13
2019-04-10T19:46:09.399Z,21.27
2019-04-10T19:48:37.472Z,17.77
2019-04-10T19:51:05.838Z,241.90
2019-04-10T19:53:33.976Z,241.57
2019-04-10T19:56:02.429Z,309.47
2019-04-10T19:58:32.191Z,40.27
2019-04-10T20:01:01.116Z,25.57
2019-04-10T20:03:29.927Z,20.83
2019-04-10T20:05:58.433Z,18.87
2019-04-10T20:08:27.885Z,20.87
2019-04-10T20:10:56.325Z,23.43
2019-04-10T20:13:24.861Z,21.33
2019-04-10T20:15:53.147Z,18.63
2019-04-10T20:18:21.583Z,30.00
2019-04-10T20:20:49.645Z,19.93
2019-04-10T20:23:18.146Z,22.93
2019-04-10T20:25:48.410Z,14.30
2019-04-10T20:28:16.609Z,18.17
2019-04-10T20:30:44.652Z,22.80
2019-04-10T20:33:12.671Z,15.80
2019-04-10T20:35:40.762Z,22.43
2019-04-10T20:38:09.337Z,16.27
2019-04-10T20:40:38.104Z,17.80
2019-04-10T20:43:06.894Z,16.23
2019-04-10T20:45:35.763Z,25.47
2019-04-10T20:48:06.466Z,15.87
2019-04-10T20:50:34.843Z,17.55
2019-04-10T20:53:03.972Z,23.83
2019-04-10T20:55:32.156Z,21.83
2019-04-10T20:58:00.099Z,22.00
2019-04-10T21:00:36.884Z,15.70
2019-04-10T21:03:04.992Z,21.00
2019-04-10T21:05:33.774Z,17.95
2019-04-10T21:08:02.165Z,16.00
2019-04-10T21:10:40.859Z,18.47
2019-04-10T21:13:09.072Z,15.60
2019-04-10T21:15:37.597Z,21.87
2019-04-10T21:18:06.791Z,17.00
2019-04-10T21:20:34.985Z,19.03
2019-04-10T21:23:03.482Z,17.73
2019-04-10T21:25:32.942Z,17.43
2019-04-10T21:28:01.026Z,16.47
2019-04-10T21:30:38.219Z,16.47
2019-04-10T21:33:25.508Z,15.98
2019-04-10T21:35:54.149Z,19.60
2019-04-10T21:38:23.479Z,17.37
2019-04-10T21:40:51.808Z,16.57
2019-04-10T21:43:20.306Z,18.53
2019-04-10T21:45:50.263Z,17.93
2019-04-10T21:48:18.892Z,14.07
2019-04-10T21:50:47.091Z,19.95
2019-04-10T21:53:16.471Z,24.45
2019-04-10T21:55:45.771Z,14.95
2019-04-10T21:58:14.466Z,15.38
2019-04-10T22:01:01.363Z,16.77
2019-04-10T22:03:29.843Z,17.25
2019-04-10T22:06:23.953Z,13.77
2019-04-10T22:09:04.101Z,14.43
2019-04-10T22:11:32.947Z,13.93
2019-04-10T22:14:01.126Z,17.13
2019-04-10T22:16:30.284Z,14.58
2019-04-10T22:18:58.453Z,15.73
2019-04-10T22:21:29.181Z,14.33
2019-04-10T22:23:57.345Z,11.80
2019-04-10T22:26:26.166Z,10.88
2019-04-10T22:28:54.835Z,11.20
2019-04-10T22:31:23.786Z,11.75
2019-04-10T22:33:52.352Z,12.47
2019-04-10T22:36:20.824Z,11.40
2019-04-10T22:38:49.688Z,12.50
2019-04-10T22:41:26.445Z,11.03
2019-04-10T22:43:49.908Z,12.23
2019-04-10T22:46:19.206Z,10.95
2019-04-10T22:48:47.946Z,12.37
2019-04-10T22:51:17.070Z,11.90
2019-04-10T22:53:45.850Z,12.88
2019-04-10T22:56:15.025Z,10.23
2019-04-10T22:58:44.160Z,10.93
2019-04-10T23:01:13.150Z,11.83
2019-04-10T23:03:41.694Z,9.95
2019-04-10T23:06:09.696Z,12.25
2019-04-10T23:08:37.986Z,10.60
2019-04-10T23:11:06.323Z,11.20
2019-04-10T23:13:34.304Z,10.55
2019-04-10T23:16:08.102Z,12.90
2019-04-10T23:18:37.250Z,10.58
2019-04-10T23:21:06.119Z,12.63
2019-04-10T23:23:34.901Z,12.20
2019-04-10T23:26:02.898Z,10.63
2019-04-10T23:28:31.564Z,10.95
2019-04-10T23:30:59.777Z,12.10
2019-04-10T23:33:28.137Z,14.83
2019-04-10T23:35:56.387Z,12.58
2019-04-10T23:38:25.643Z,13.68
2019-04-10T23:40:53.845Z,12.80
2019-04-10T23:43:22.691Z,12.03
2019-04-10T23:45:52.060Z,12.50
2019-04-10T23:48:22.527Z,11.22
2019-04-10T23:50:50.835Z,10.85
2019-04-10T23:53:18.839Z,11.60
2019-04-10T23:55:46.645Z,11.38
2019-04-10T23:58:14.521Z,16.62
